Latest Weather Observations for Horsham

IDV60801

Issued at 9:02 am EDT Friday 31 March 2017 (issued every 30 minutes, with the page automatically refreshed every 10 minutes)

About weather observations | Map of weather stations | Latest weather observations for VIC | Other Formats
Station Details ID: 079100 Name: HORSHAM AERODROME Lat: -36.67 Lon: 142.17 Height: 133.8 m
Data from the previous 72 hours. | See also: Recent months at Horsham
Date/Time
EDT
Temp
°C
App
Temp
°C
Dew
Point
°C
Rel
Hum
%
Delta-T
°C
Wind Press
QNH
hPa
Press
MSL
hPa
Rain since
9am
mm
Dir  Spd
km/h
Gust
km/h
Spd
kts
Gust
kts
31/09:00am 5.8 3.0 5.1 95 0.3 SW 9 13 5 7 1024.5 1024.1 0.0
31/08:30am 4.3 1.2 3.6 95 0.3 SSW 9 11 5 6 1024.1 1023.8 0.0
31/08:00am 4.5 1.0 3.6 94 0.4 WSW 11 13 6 7 1023.9 1023.6 0.0
31/07:30am 4.6 1.1 3.7 94 0.4 WSW 11 13 6 7 1023.6 1023.3 0.0
31/07:00am 4.7 0.5 3.8 94 0.4 WSW 15 17 8 9 1023.3 1023.0 0.0
31/06:30am 5.0 1.2 4.1 94 0.4 WSW 13 15 7 8 1022.7 1022.4 0.0
31/06:00am 4.1 0.5 3.2 94 0.4 SW 11 13 6 7 1022.4 1022.1 0.0
31/05:30am 4.8 1.0 3.8 93 0.4 WSW 13 15 7 8 1022.1 1021.8 0.0
31/05:00am 4.7 0.4 3.5 92 0.5 WSW 15 17 8 9 1022.0 1021.7 0.0
31/04:30am 5.3 1.5 4.0 91 0.6 SW 13 15 7 8 1021.6 1021.3 0.0
31/04:00am 5.5 2.1 4.2 91 0.6 SSW 11 13 6 7 1021.5 1021.1 0.0
31/03:30am 5.7 2.7 4.3 91 0.6 SSW 9 11 5 6 1021.9 1021.6 0.0
31/03:00am 5.4 2.3 3.7 89 0.7 SSW 9 9 5 5 1022.1 1021.8 0.0
31/02:30am 4.3 2.8 2.8 90 0.6 CALM 0 0 0 0 1022.2 1021.9 0.0
31/02:00am 4.6 2.3 2.8 88 0.7 SSW 4 6 2 3 1022.4 1022.1 0.0
31/01:30am 5.1 1.5 3.1 87 0.8 SSW 11 15 6 8 1022.5 1022.2 0.0
31/01:00am 7.2 3.5 4.5 83 1.2 SW 13 13 7 7 1022.9 1022.6 0.0
31/12:30am 6.1 3.1 3.9 86 0.9 S 9 11 5 6 1023.2 1022.9 0.0
31/12:00am 6.6 2.7 3.6 81 1.3 SSW 13 15 7 8 1023.5 1023.2 0.0
 
Date/Time
EDT
Temp
°C
App
Temp
°C
Dew
Point
°C
Rel
Hum
%
Delta-T
°C
Wind Press
QNH
hPa
Press
MSL
hPa
Rain since
9am
mm
Dir  Spd
km/h
Gust
km/h
Spd
kts
Gust
kts
30/11:30pm 7.8 3.3 4.4 79 1.5 SSW 17 19 9 10 1023.5 1023.2 0.0
30/11:00pm 8.0 3.5 4.4 78 1.6 S 17 19 9 10 1023.4 1023.1 0.0
30/10:30pm 8.0 3.8 3.8 75 1.8 S 15 17 8 9 1023.5 1023.2 0.0
30/10:00pm 9.9 5.1 4.7 70 2.3 S 19 20 10 11 1023.7 1023.4 0.0
30/09:30pm 10.0 5.2 4.6 69 2.4 S 19 20 10 11 1023.5 1023.2 0.0
30/09:00pm 9.6 5.2 4.6 71 2.2 S 17 26 9 14 1023.1 1022.8 0.0
30/08:30pm 10.6 6.8 4.1 64 2.9 S 13 19 7 10 1022.8 1022.5 0.0
30/08:00pm 11.7 6.8 4.2 60 3.4 S 19 22 10 12 1022.3 1022.0 0.0
30/07:30pm 13.8 8.1 4.7 54 4.2 S 24 33 13 18 1022.0 1021.7 0.0
30/07:00pm 15.1 8.4 3.9 47 5.2 SSW 28 37 15 20 1021.4 1021.0 0.0
30/06:30pm 15.7 9.4 3.8 45 5.5 SSW 26 35 14 19 1020.9 1020.6 0.0
30/06:00pm 15.7 9.6 5.0 49 5.1 S 26 35 14 19 1020.7 1020.4 0.0
30/05:30pm 16.6 10.1 4.6 45 5.7 S 28 39 15 21 1020.4 1020.1 0.0
30/05:00pm 17.6 12.0 5.5 45 5.9 SSW 24 30 13 16 1020.4 1020.1 0.0
30/04:30pm 17.0 10.3 5.6 47 5.5 SSW 30 41 16 22 1020.3 1020.0 0.0
30/04:00pm 16.6 9.4 4.9 46 5.6 SSW 32 39 17 21 1019.9 1019.6 0.0
30/03:42pm 17.9 11.2 5.5 44 6.1 SW 30 48 16 26 1019.6 1019.3 0.0
30/03:30pm 18.2 11.9 4.0 39 6.7 SW 26 39 14 21 1019.6 1019.3 0.0
30/03:00pm 17.0 10.2 5.3 46 5.6 SW 30 39 16 21 1019.8 1019.5 0.0
30/02:30pm 15.8 7.1 6.0 52 4.8 SW 41 56 22 30 1019.9 1019.6 0.0
30/02:23pm 16.1 8.7 5.1 48 5.3 SSW 33 56 18 30 1019.8 1019.5 0.0
30/02:00pm 16.9 10.2 3.9 42 6.1 SSW 28 37 15 20 1019.7 1019.4 0.0
30/01:39pm 17.1 10.2 4.8 44 5.9 SSW 30 48 16 26 1019.7 1019.4 0.0
30/01:30pm 16.9 9.3 3.9 42 6.1 SSW 33 48 18 26 1019.9 1019.6 0.0
30/01:00pm 16.0 9.1 4.7 47 5.3 SSW 30 43 16 23 1019.9 1019.6 0.0
30/12:30pm 16.4 9.3 5.7 49 5.2 SSW 32 43 17 23 1020.0 1019.7 0.0
30/12:06pm 15.6 8.9 5.8 52 4.7 SSW 30 48 16 26 1020.1 1019.8 0.0
30/12:00pm 16.1 9.6 6.5 53 4.7 SSW 30 41 16 22 1020.1 1019.8 0.0
30/11:30am 14.3 8.3 6.9 61 3.6 SSW 28 37 15 20 1019.9 1019.6 0.0
30/11:00am 13.6 8.2 8.0 69 2.8 SSW 26 33 14 18 1019.7 1019.4 0.0
30/10:30am 12.7 6.5 8.0 73 2.3 SW 30 39 16 21 1020.1 1019.8 0.0
30/10:00am 11.6 7.4 8.1 79 1.7 SW 20 28 11 15 1019.9 1019.6 0.0
30/09:30am 10.3 6.3 8.1 86 1.1 SW 19 24 10 13 1019.6 1019.3 0.0
30/09:00am 8.4 4.1 6.9 90 0.7 SW 19 22 10 12 1019.3 1019.0 1.2
30/08:30am 6.1 2.1 5.1 93 0.4 SW 15 19 8 10 1018.7 1018.4 1.2
30/08:00am 6.0 2.0 5.0 93 0.4 WSW 15 20 8 11 1018.3 1018.0 1.2
30/07:30am 6.6 2.8 5.9 95 0.3 W 15 19 8 10 1018.0 1017.7 1.2
30/07:00am 5.9 2.7 5.2 95 0.3 W 11 15 6 8 1017.7 1017.4 1.2
30/06:30am 6.0 2.8 5.3 95 0.3 W 11 17 6 9 1017.2 1016.9 1.2
30/06:00am 6.1 3.0 5.4 95 0.3 WSW 11 13 6 7 1016.6 1016.3 1.2
30/05:30am 6.6 3.6 6.0 96 0.3 SW 11 13 6 7 1016.2 1015.9 1.0
30/05:00am 5.1 2.2 4.4 95 0.3 SSW 9 11 5 6 1016.0 1015.7 1.0
30/04:30am 5.7 2.8 4.8 94 0.4 SW 9 11 5 6 1015.5 1015.2 1.0
30/04:00am 6.7 3.7 6.0 95 0.3 WSW 11 13 6 7 1015.3 1015.0 1.0
30/03:30am 7.5 3.9 6.8 95 0.3 WSW 15 17 8 9 1015.2 1014.9 1.0
30/03:00am 7.4 3.7 6.5 94 0.4 WSW 15 17 8 9 1015.0 1014.6 1.0
30/02:30am 8.1 4.6 7.2 94 0.4 WSW 15 19 8 10 1014.8 1014.4 1.0
30/02:00am 8.9 6.4 8.1 95 0.4 W 11 17 6 9 1014.8 1014.4 1.0
30/01:30am 9.1 6.6 8.2 94 0.4 W 11 15 6 8 1014.8 1014.4 1.0
30/01:00am 9.2 6.7 8.3 94 0.4 W 11 13 6 7 1014.6 1014.2 1.0
30/12:30am 9.3 7.2 8.4 94 0.4 WSW 9 13 5 7 1014.8 1014.4 1.0
30/12:00am 10.0 8.1 8.9 93 0.5 WSW 9 13 5 7 1014.7 1014.3 1.0
 
Date/Time
EDT
Temp
°C
App
Temp
°C
Dew
Point
°C
Rel
Hum
%
Delta-T
°C
Wind Press
QNH
hPa
Press
MSL
hPa
Rain since
9am
mm
Dir  Spd
km/h
Gust
km/h
Spd
kts
Gust
kts
29/11:30pm 10.7 7.8 9.5 92 0.6 WSW 15 19 8 10 1014.5 1014.1 1.0
29/11:00pm 10.6 8.0 9.5 93 0.6 WSW 13 17 7 9 1014.0 1013.6 1.0
29/10:30pm 10.5 8.3 9.3 92 0.6 WSW 11 15 6 8 1013.6 1013.2 1.0
29/10:00pm 10.6 8.8 9.4 92 0.6 WSW 9 13 5 7 1013.1 1012.8 1.0
29/09:30pm 10.5 7.5 9.3 92 0.6 SSW 15 19 8 10 1012.4 1012.1 1.0
29/09:00pm 10.6 7.2 9.0 90 0.8 SW 17 20 9 11 1012.2 1011.9 0.8
29/08:30pm 10.6 5.8 8.7 88 0.9 SSW 24 30 13 16 1011.8 1011.5 0.8
29/08:00pm 10.7 5.2 9.3 91 0.7 SSW 28 33 15 18 1011.7 1011.4 0.6
29/07:45pm 11.1 5.0 9.7 91 0.7 SSW 32 41 17 22 1011.2 1010.9 0.0
29/07:30pm 11.7 6.1 10.3 91 0.7 SSW 30 43 16 23 1011.1 1010.8 0.0
29/07:25pm 11.5 5.3 10.1 91 0.7 SSW 33 43 18 23 1011.1 1010.8 0.0
29/07:00pm 12.2 5.2 10.1 87 1.1 SSW 37 48 20 26 1010.7 1010.4 0.0
29/06:30pm 13.2 3.6 9.5 78 1.9 SSW 50 67 27 36 1010.2 1009.9 0.0
29/06:05pm 15.4 6.4 10.2 71 2.7 SSW 48 67 26 36 1009.1 1008.8 0.0
29/06:00pm 16.0 7.5 10.7 71 2.8 SSW 46 59 25 32 1009.0 1008.7 0.0
29/05:30pm 18.7 11.0 12.0 65 3.7 W 44 61 24 33 1007.7 1007.3 0.0
29/05:25pm 22.5 14.6 9.3 43 7.1 W 41 61 22 33 1007.0 1006.6 0.0
29/05:00pm 23.9 17.0 8.7 38 8.2 WNW 35 50 19 27 1006.6 1006.2 0.0
29/04:30pm 25.3 18.3 8.3 34 9.2 WNW 35 48 19 26 1006.6 1006.2 0.0
29/04:00pm 24.7 17.4 8.6 36 8.7 WNW 37 48 20 26 1006.7 1006.3 0.0
29/03:30pm 24.3 17.6 9.5 39 8.1 WNW 35 48 19 26 1006.9 1006.5 0.0
29/03:00pm 24.0 17.3 9.6 40 7.9 WNW 35 50 19 27 1007.2 1006.8 0.0
29/02:30pm 22.9 17.0 10.3 45 6.9 W 32 44 17 24 1007.6 1007.2 0.0
29/02:00pm 24.1 17.8 9.7 40 7.9 NW 33 44 18 24 1007.9 1007.5 0.0
29/01:30pm 23.8 17.8 10.1 42 7.6 NW 32 39 17 21 1008.3 1007.9 0.0
29/01:00pm 23.1 17.2 10.5 45 7.0 WNW 32 43 17 23 1008.9 1008.6 0.0
29/12:30pm 21.9 16.7 10.1 47 6.5 WNW 28 39 15 21 1009.4 1009.1 0.0
29/12:00pm 21.9 16.4 10.4 48 6.3 WNW 30 39 16 21 1009.7 1009.4 0.0
29/11:30am 21.9 16.7 11.6 52 5.8 NW 30 39 16 21 1010.0 1009.7 0.0
29/11:00am 19.7 16.1 12.0 61 4.3 NW 22 30 12 16 1010.4 1010.1 0.0
29/10:30am 18.9 15.6 11.7 63 4.0 NW 20 26 11 14 1010.4 1010.1 0.0
29/10:00am 17.9 14.6 11.5 66 3.5 NW 20 28 11 15 1010.6 1010.3 0.0
29/09:30am 16.0 13.0 11.8 76 2.3 NNW 19 24 10 13 1010.6 1010.3 0.0
29/09:00am 12.5 10.1 9.9 84 1.3 NNW 13 17 7 9 1010.5 1010.2 0.0
29/08:30am 9.5 7.3 7.9 90 0.8 N 9 13 5 7 1010.4 1010.1 0.0
29/08:00am 7.7 4.4 6.3 91 0.6 N 13 15 7 8 1010.1 1009.8 0.0
29/07:30am 8.1 5.2 6.7 91 0.7 N 11 13 6 7 1010.1 1009.8 0.0
29/07:00am 8.1 4.9 6.7 91 0.7 N 13 15 7 8 1010.1 1009.8 0.0
29/06:30am 8.4 5.2 7.0 91 0.7 NNW 13 15 7 8 1010.2 1009.9 0.0
29/06:00am 8.4 6.3 6.7 89 0.8 N 7 9 4 5 1010.3 1010.0 0.0
29/05:30am 9.1 6.4 7.5 90 0.8 NNW 11 13 6 7 1010.1 1009.8 0.0
29/05:00am 9.1 6.7 7.1 87 0.9 NW 9 11 5 6 1010.2 1009.9 0.0
29/04:30am 9.2 6.9 7.3 88 0.9 NNW 9 9 5 5 1010.6 1010.3 0.0
29/04:00am 9.2 6.8 7.2 87 1.0 NW 9 13 5 7 1010.7 1010.4 0.0
29/03:30am 9.5 8.0 6.6 82 1.4 W 4 7 2 4 1010.9 1010.6 0.0
29/03:00am 10.9 9.3 8.0 82 1.4 WSW 6 7 3 4 1011.1 1010.8 0.0
29/02:30am 11.0 9.4 8.2 83 1.4 WSW 6 7 3 4 1011.3 1011.0 0.0
29/02:00am 10.5 8.6 6.6 77 1.8 SW 6 7 3 4 1011.6 1011.3 0.0
29/01:30am 12.9 11.5 9.5 80 1.7 SW 7 9 4 5 1011.8 1011.5 0.0
29/01:00am 13.1 11.7 9.7 80 1.8 SW 7 9 4 5 1012.0 1011.7 0.0
29/12:30am 12.6 11.1 9.1 79 1.8 WSW 7 9 4 5 1012.2 1011.9 0.0
29/12:00am 13.6 11.8 9.3 75 2.2 SW 9 11 5 6 1012.4 1012.1 0.0
 
Date/Time
EDT
Temp
°C
App
Temp
°C
Dew
Point
°C
Rel
Hum
%
Delta-T
°C
Wind Press
QNH
hPa
Press
MSL
hPa
Rain since
9am
mm
Dir  Spd
km/h
Gust
km/h
Spd
kts
Gust
kts
28/11:30pm 13.4 11.5 8.9 74 2.3 SW 9 11 5 6 1012.6 1012.3 0.0
28/11:00pm 14.2 12.3 9.0 71 2.7 SW 9 11 5 6 1012.7 1012.4 0.0
28/10:30pm 15.1 12.4 9.0 67 3.1 SW 13 15 7 8 1012.8 1012.5 0.0
28/10:00pm 16.6 13.6 9.1 61 3.9 WSW 15 19 8 10 1012.8 1012.5 0.0
28/09:30pm 17.1 14.3 8.5 57 4.4 W 13 13 7 7 1012.6 1012.3 0.0
28/09:00pm 16.3 14.0 7.3 55 4.5 W 9 11 5 6 1012.4 1012.1 0.0
28/08:30pm 18.7 16.6 8.1 50 5.5 W 9 15 5 8 1012.0 1011.7 0.0
28/08:00pm 19.7 17.2 8.4 48 5.9 WSW 11 13 6 7 1011.9 1011.6 0.0
28/07:30pm 21.4 18.9 8.3 43 6.9 WSW 11 17 6 9 1011.8 1011.5 0.0
28/07:00pm 23.1 19.4 8.0 38 8.0 WNW 17 22 9 12 1011.7 1011.4 0.0
28/06:30pm 24.1 20.5 8.5 37 8.4 W 17 28 9 15 1011.6 1011.3 0.0
28/06:00pm 24.3 20.3 8.3 36 8.6 W 19 28 10 15 1011.5 1011.2 0.0
28/05:30pm 24.6 20.4 8.1 35 8.8 W 20 30 11 16 1011.6 1011.3 0.0
28/05:00pm 24.6 20.6 9.0 37 8.5 WNW 20 30 11 16 1011.7 1011.4 0.0
28/04:30pm 25.0 21.9 8.9 36 8.8 W 15 35 8 19 1011.9 1011.6 0.0
28/04:00pm 24.4 20.3 8.8 37 8.5 W 20 32 11 17 1012.2 1011.9 0.0
28/03:30pm 24.1 20.3 8.9 38 8.2 WNW 19 30 10 16 1012.4 1012.1 0.0
28/03:00pm 23.8 19.3 8.6 38 8.2 WNW 22 33 12 18 1012.7 1012.4 0.0
28/02:30pm 22.6 18.2 9.0 42 7.3 W 22 35 12 19 1013.3 1013.0 0.0
28/02:00pm 22.0 18.0 8.9 43 7.0 WNW 20 35 11 19 1013.7 1013.3 0.0
28/01:30pm 21.7 18.4 9.6 46 6.5 W 17 33 9 18 1014.1 1013.7 0.0
28/01:00pm 21.1 17.4 10.3 50 5.9 W 20 32 11 17 1014.6 1014.2 0.0
28/12:30pm 20.0 16.5 10.1 53 5.4 WSW 19 24 10 13 1015.1 1014.8 0.0
28/12:00pm 19.5 16.1 10.5 56 4.9 W 19 26 10 14 1015.2 1014.9 0.0
28/11:30am 19.0 15.4 10.6 58 4.6 W 20 32 11 17 1015.5 1015.2 0.0
28/11:00am 18.7 15.4 10.8 60 4.3 W 19 30 10 16 1015.5 1015.2 0.0
28/10:30am 17.4 14.9 11.2 67 3.4 WSW 15 20 8 11 1015.4 1015.1 0.0
28/10:00am 15.4 14.3 11.8 79 2.0 W 9 11 5 6 1015.8 1015.5 0.0
28/09:30am 12.8 12.0 10.9 88 1.0 WNW 6 9 3 5 1015.6 1015.3 0.0

Other Formats:

Comma delimited format used in spreadsheet applications
http://www.bom.gov.au/fwo/IDV60801/IDV60801.95839.axf

JavaScript Object Notation format (JSON) in row-major order
http://www.bom.gov.au/fwo/IDV60801/IDV60801.95839.json